Time;durP1;ratioP1;P1;durP2;ratioP2;P2;SDS_P1;SDS_P2;PMS_P1;PMS_P2;Temp;Humidity;BMP_temperature;BMP_pressure;BME280_temperature;BME280_humidity;BME280_pressure;Samples;Min_cycle;Max_cycle;Signal;HPM_P1;HPM_P2
2022/02/07 00:01:20;;;;;;;11.35;7.03;;;;;;;;;;5113217;28;20035;-35
2022/02/07 00:03:51;;;;;;;10.77;6.75;;;;;;;;;;5113166;28;20042;-35
2022/02/07 00:06:16;;;;;;;12.98;6.68;;;;;;;;;;5113284;28;20016;-35
2022/02/07 00:08:42;;;;;;;11.40;6.82;;;;;;;;;;5113189;28;20389;-36
2022/02/07 00:11:08;;;;;;;14.43;7.22;;;;;;;;;;5113052;28;20020;-35
2022/02/07 00:13:33;;;;;;;13.70;7.80;;;;;;;;;;5113061;28;20491;-35
2022/02/07 00:15:59;;;;;;;13.13;7.32;;;;;;;;;;5113030;28;20117;-35
2022/02/07 00:18:24;;;;;;;12.07;6.88;;;;;;;;;;5112943;28;20016;-35
2022/02/07 00:20:50;;;;;;;11.57;6.95;;;;;;;;;;5112789;28;20081;-35
2022/02/07 00:23:16;;;;;;;14.23;7.13;;;;;;;;;;5113154;28;20412;-35
2022/02/07 00:25:41;;;;;;;13.02;7.10;;;;;;;;;;5113020;28;20019;-35
2022/02/07 00:28:06;;;;;;;17.83;7.80;;;;;;;;;;5094700;28;20504;-35
2022/02/07 00:30:32;;;;;;;15.90;7.13;;;;;;;;;;5094560;28;20020;-35
2022/02/07 00:32:57;;;;;;;15.77;7.60;;;;;;;;;;5094225;28;20022;-35
2022/02/07 00:35:24;;;;;;;15.20;7.82;;;;;;;;;;5094525;28;20425;-35
2022/02/07 00:37:51;;;;;;;11.70;6.18;;;;;;;;;;5114384;28;20016;-35
2022/02/07 00:40:32;;;;;;;11.90;6.30;;;;;;;;;;5116434;28;20059;-35
2022/02/07 00:43:12;;;;;;;12.02;6.80;;;;;;;;;;5098205;28;20028;-35
2022/02/07 00:45:41;;;;;;;11.90;6.28;;;;;;;;;;5097851;28;20030;-35
2022/02/07 00:48:09;;;;;;;11.18;5.88;;;;;;;;;;5116553;28;20466;-35
2022/02/07 00:50:35;;;;;;;8.82;5.57;;;;;;;;;;5098017;28;20110;-35
2022/02/07 00:53:01;;;;;;;11.25;5.95;;;;;;;;;;5097893;28;20019;-35
2022/02/07 00:55:26;;;;;;;9.43;5.80;;;;;;;;;;5116054;28;20018;-35
2022/02/07 00:57:52;;;;;;;9.90;5.85;;;;;;;;;;5115974;28;20047;-35
2022/02/07 01:00:17;;;;;;;9.93;5.57;;;;;;;;;;5097472;28;20111;-35
2022/02/07 01:02:43;;;;;;;8.95;4.65;;;;;;;;;;5116090;28;20024;-35
2022/02/07 01:05:09;;;;;;;13.52;5.80;;;;;;;;;;5116074;28;20026;-35
2022/02/07 01:07:34;;;;;;;9.95;5.70;;;;;;;;;;5097672;28;20118;-35
2022/02/07 01:09:59;;;;;;;9.85;5.55;;;;;;;;;;5103322;28;20012;-35
2022/02/07 01:15:02;;;;;;;11.25;4.95;;;;;;;;;;5094955;28;20037;-36
2022/02/07 01:23:23;;;;;;;10.27;5.75;;;;;;;;;;5095331;28;20125;-35
2022/02/07 01:57:55;;;;;;;9.82;4.90;;;;;;;;;;5094628;28;20047;-35
2022/02/07 02:00:20;;;;;;;9.05;4.90;;;;;;;;;;5094517;28;20034;-35
2022/02/07 02:02:46;;;;;;;7.45;4.65;;;;;;;;;;5093220;28;20131;-35
2022/02/07 02:05:11;;;;;;;8.25;5.03;;;;;;;;;;5093013;28;20037;-35
2022/02/07 02:07:37;;;;;;;9.52;4.90;;;;;;;;;;5094301;28;20027;-35
2022/02/07 02:10:03;;;;;;;9.48;5.30;;;;;;;;;;5093098;28;20078;-35
2022/02/07 02:12:32;;;;;;;8.80;4.93;;;;;;;;;;5094212;28;20028;-35
2022/02/07 02:18:11;;;;;;;10.60;5.47;;;;;;;;;;5094172;28;20084;-35
2022/02/07 02:34:08;;;;;;;9.73;5.22;;;;;;;;;;5094133;28;20047;-35
2022/02/07 02:45:27;;;;;;;10.63;5.28;;;;;;;;;;5093799;28;20090;-35
2022/02/07 02:47:16;;;;;;;8.30;4.90;;;;;;;;;;5093897;28;20035;-35
2022/02/07 02:49:47;;;;;;;10.32;5.28;;;;;;;;;;5093664;28;20024;-35
2022/02/07 02:52:12;;;;;;;11.13;5.50;;;;;;;;;;5093626;28;20024;-35
2022/02/07 02:54:37;;;;;;;10.80;5.30;;;;;;;;;;5093566;28;20033;-35
2022/02/07 02:57:03;;;;;;;8.60;5.43;;;;;;;;;;5092117;28;20065;-35
2022/02/07 02:59:28;;;;;;;7.00;4.80;;;;;;;;;;5091814;28;20085;-35
2022/02/07 03:01:53;;;;;;;11.15;5.45;;;;;;;;;;5093319;28;20016;-35
2022/02/07 03:04:19;;;;;;;12.05;5.30;;;;;;;;;;5092210;28;20024;-35
2022/02/07 03:06:44;;;;;;;11.68;5.90;;;;;;;;;;5093522;28;20020;-35
2022/02/07 03:09:14;;;;;;;9.57;5.93;;;;;;;;;;5093136;28;20030;-35
2022/02/07 03:11:39;;;;;;;9.77;5.38;;;;;;;;;;5091886;28;20028;-35
2022/02/07 03:14:05;;;;;;;10.02;5.43;;;;;;;;;;5093002;28;20524;-35
2022/02/07 03:16:40;;;;;;;13.25;5.72;;;;;;;;;;5092132;28;20024;-35
2022/02/07 03:19:10;;;;;;;8.18;5.55;;;;;;;;;;5093499;28;20051;-35
2022/02/07 03:21:35;;;;;;;11.98;5.70;;;;;;;;;;5091899;28;20490;-35
2022/02/07 03:24:01;;;;;;;11.82;5.93;;;;;;;;;;5093228;28;20103;-35
2022/02/07 03:26:26;;;;;;;11.05;5.32;;;;;;;;;;5092983;28;20107;-36
2022/02/07 03:28:52;;;;;;;13.27;6.97;;;;;;;;;;5092921;28;20024;-35
2022/02/07 03:31:19;;;;;;;10.52;5.40;;;;;;;;;;5093096;28;20028;-35
2022/02/07 03:33:44;;;;;;;11.90;5.57;;;;;;;;;;5093110;28;20024;-35
2022/02/07 03:36:11;;;;;;;8.05;5.00;;;;;;;;;;5093162;28;20051;-35
2022/02/07 03:38:36;;;;;;;11.82;5.05;;;;;;;;;;5091637;28;20479;-35
2022/02/07 03:41:02;;;;;;;10.20;5.28;;;;;;;;;;5092843;28;20042;-35
2022/02/07 03:43:27;;;;;;;9.52;5.15;;;;;;;;;;5092744;28;20031;-35
2022/02/07 03:45:52;;;;;;;10.10;5.72;;;;;;;;;;5093095;28;20043;-35
2022/02/07 03:48:17;;;;;;;9.50;5.07;;;;;;;;;;5091813;28;20020;-35
2022/02/07 03:50:43;;;;;;;10.30;5.40;;;;;;;;;;5091748;28;20119;-35
2022/02/07 03:53:08;;;;;;;7.82;4.75;;;;;;;;;;5092797;28;20485;-35
2022/02/07 03:55:33;;;;;;;10.23;4.85;;;;;;;;;;5092836;28;20070;-35
2022/02/07 03:57:59;;;;;;;10.75;5.25;;;;;;;;;;5092567;28;20487;-35
2022/02/07 04:00:25;;;;;;;9.60;5.82;;;;;;;;;;5091591;28;20032;-35
2022/02/07 04:02:52;;;;;;;11.05;5.35;;;;;;;;;;5092765;28;20020;-35
2022/02/07 04:05:55;;;;;;;9.93;5.90;;;;;;;;;;5092832;28;20020;-35
2022/02/07 04:08:10;;;;;;;11.80;5.65;;;;;;;;;;5090260;28;20043;-35
2022/02/07 04:10:49;;;;;;;13.07;5.82;;;;;;;;;;5092488;28;20058;-35
2022/02/07 04:13:14;;;;;;;10.48;5.13;;;;;;;;;;5094762;28;20016;-35
2022/02/07 04:15:39;;;;;;;10.35;5.70;;;;;;;;;;5096731;28;20016;-35
2022/02/07 04:18:10;;;;;;;10.70;5.72;;;;;;;;;;5095389;28;20115;-35
2022/02/07 04:20:37;;;;;;;9.63;5.78;;;;;;;;;;5095138;28;20032;-35
2022/02/07 04:23:03;;;;;;;10.70;5.85;;;;;;;;;;5096168;28;20024;-35
2022/02/07 04:25:28;;;;;;;10.63;5.00;;;;;;;;;;5095267;28;20019;-35
2022/02/07 04:27:54;;;;;;;11.85;5.30;;;;;;;;;;5096563;28;20027;-35
2022/02/07 04:30:19;;;;;;;11.55;5.93;;;;;;;;;;5096294;28;20106;-35
2022/02/07 04:32:45;;;;;;;10.25;5.90;;;;;;;;;;5096120;28;20382;-35
2022/02/07 04:35:10;;;;;;;10.35;4.70;;;;;;;;;;5096183;28;20012;-35
2022/02/07 04:37:35;;;;;;;10.35;5.50;;;;;;;;;;5096098;28;20394;-35
2022/02/07 04:40:01;;;;;;;11.80;4.70;;;;;;;;;;5096331;28;20493;-35
2022/02/07 04:42:27;;;;;;;11.13;5.50;;;;;;;;;;5096074;28;20028;-35
2022/02/07 04:58:14;;;;;;;10.13;5.22;;;;;;;;;;5095678;28;20136;-35
2022/02/07 05:00:50;;;;;;;12.02;5.78;;;;;;;;;;5094141;28;20540;-35
2022/02/07 05:03:24;;;;;;;11.45;5.88;;;;;;;;;;5094566;28;20065;-35
2022/02/07 05:16:17;;;;;;;8.52;4.78;;;;;;;;;;5095593;28;20089;-35
2022/02/07 05:18:43;;;;;;;8.73;4.88;;;;;;;;;;5094119;28;20020;-35
2022/02/07 05:21:09;;;;;;;11.98;4.90;;;;;;;;;;5095062;28;20471;-35
2022/02/07 05:23:34;;;;;;;11.13;4.95;;;;;;;;;;5094946;28;20085;-35
2022/02/07 05:25:59;;;;;;;8.80;4.25;;;;;;;;;;5093859;28;20132;-35
2022/02/07 05:28:24;;;;;;;14.45;4.88;;;;;;;;;;5093980;28;20024;-35
2022/02/07 05:30:50;;;;;;;11.32;4.82;;;;;;;;;;5095125;28;20038;-35
2022/02/07 05:33:15;;;;;;;10.75;5.20;;;;;;;;;;5095102;28;20039;-35
2022/02/07 05:35:40;;;;;;;10.95;5.35;;;;;;;;;;5093749;28;20103;-35
2022/02/07 05:38:08;;;;;;;9.27;5.10;;;;;;;;;;5093753;28;20048;-35
2022/02/07 05:41:07;;;;;;;7.78;5.00;;;;;;;;;;5094619;28;20398;-35
2022/02/07 05:43:25;;;;;;;11.27;5.68;;;;;;;;;;5091481;28;20443;-35
2022/02/07 05:45:50;;;;;;;10.88;5.95;;;;;;;;;;5094773;28;20047;-35
2022/02/07 05:48:15;;;;;;;19.23;8.23;;;;;;;;;;5093512;28;20086;-35
2022/02/07 05:50:41;;;;;;;17.83;8.55;;;;;;;;;;5094712;28;20474;-35
2022/02/07 05:53:06;;;;;;;14.52;7.07;;;;;;;;;;5094550;28;20381;-35
2022/02/07 05:55:31;;;;;;;15.13;6.85;;;;;;;;;;5093479;28;20119;-35
2022/02/07 05:57:56;;;;;;;11.82;5.97;;;;;;;;;;5094601;28;20557;-36
2022/02/07 06:00:22;;;;;;;16.10;6.90;;;;;;;;;;5094640;28;20036;-35
2022/02/07 06:02:47;;;;;;;11.82;5.85;;;;;;;;;;5094409;28;20549;-35
2022/02/07 06:05:12;;;;;;;13.57;5.57;;;;;;;;;;5094398;28;20111;-35
2022/02/07 06:07:38;;;;;;;9.95;5.78;;;;;;;;;;5094016;28;20016;-35
2022/02/07 06:10:04;;;;;;;9.88;5.68;;;;;;;;;;5094028;28;20413;-36
2022/02/07 06:12:34;;;;;;;12.02;5.68;;;;;;;;;;5093149;28;20467;-36
2022/02/07 06:14:59;;;;;;;;;;;;;;;;;;5094698;28;20070;-36
2022/02/07 06:17:24;;;;;;;10.33;5.50;;;;;;;;;;5094339;28;19905;-36
2022/02/07 06:19:51;;;;;;;8.63;5.18;;;;;;;;;;5092814;28;20546;-36
2022/02/07 06:22:17;;;;;;;15.60;5.97;;;;;;;;;;5093745;28;20026;-36
2022/02/07 06:24:42;;;;;;;10.93;5.63;;;;;;;;;;5092804;28;20106;-36
2022/02/07 06:27:07;;;;;;;14.40;7.03;;;;;;;;;;5094080;28;20558;-36
2022/02/07 06:29:33;;;;;;;12.50;6.80;;;;;;;;;;5092857;28;20024;-36
2022/02/07 06:31:58;;;;;;;13.75;6.55;;;;;;;;;;5093919;28;20379;-36
2022/02/07 06:34:23;;;;;;;10.55;5.85;;;;;;;;;;5092502;28;20019;-36
2022/02/07 06:36:49;;;;;;;13.23;6.10;;;;;;;;;;5094735;28;20061;-36
2022/02/07 06:39:14;;;;;;;12.18;6.32;;;;;;;;;;5116447;27;20164;-36
2022/02/07 06:41:42;;;;;;;14.85;6.82;;;;;;;;;;5121501;27;20015;-39
2022/02/07 06:44:08;;;;;;;13.70;7.17;;;;;;;;;;5121317;27;20481;-39
2022/02/07 06:46:33;;;;;;;12.10;7.60;;;;;;;;;;5113091;27;20016;-36
2022/02/07 06:48:58;;;;;;;14.77;7.10;;;;;;;;;;5095196;28;20043;-36
2022/02/07 06:51:24;;;;;;;15.38;7.68;;;;;;;;;;5088910;28;20372;-36
2022/02/07 06:53:49;;;;;;;16.92;9.35;;;;;;;;;;5114031;28;20545;-36
2022/02/07 06:56:14;;;;;;;17.85;9.57;;;;;;;;;;5113936;28;20102;-36
2022/02/07 06:58:40;;;;;;;18.80;9.93;;;;;;;;;;5095589;28;20027;-36
2022/02/07 07:01:06;;;;;;;20.85;10.23;;;;;;;;;;5113699;28;20420;-36
2022/02/07 07:03:33;;;;;;;19.83;9.88;;;;;;;;;;5113698;28;20062;-36
2022/02/07 07:05:59;;;;;;;19.40;10.00;;;;;;;;;;5099531;28;20027;-37
2022/02/07 07:08:24;;;;;;;17.85;10.10;;;;;;;;;;5104790;28;20031;-36
2022/02/07 07:10:50;;;;;;;21.60;10.38;;;;;;;;;;5105209;28;20027;-36
2022/02/07 07:13:23;;;;;;;24.13;11.20;;;;;;;;;;5113306;28;20045;-36
2022/02/07 07:15:53;;;;;;;23.00;11.27;;;;;;;;;;5085427;28;20012;-36
2022/02/07 07:18:20;;;;;;;22.45;10.48;;;;;;;;;;5111365;28;20060;-35
2022/02/07 07:20:46;;;;;;;20.42;10.68;;;;;;;;;;5105778;28;20076;-36
2022/02/07 07:23:12;;;;;;;21.00;10.52;;;;;;;;;;5091238;28;20036;-38
2022/02/07 07:25:39;;;;;;;24.13;11.07;;;;;;;;;;5084548;28;20055;-37
2022/02/07 07:28:08;;;;;;;23.75;11.25;;;;;;;;;;5092993;28;20180;-38
2022/02/07 07:30:38;;;;;;;23.30;10.57;;;;;;;;;;5078003;28;20068;-36
2022/02/07 07:33:09;;;;;;;23.83;12.20;;;;;;;;;;5111076;28;20372;-36
2022/02/07 07:35:34;;;;;;;24.58;12.90;;;;;;;;;;5112794;28;20023;-35
2022/02/07 07:38:00;;;;;;;37.20;11.43;;;;;;;;;;5111084;28;20035;-35
2022/02/07 07:40:25;;;;;;;25.17;11.40;;;;;;;;;;5112733;28;20600;-35
2022/02/07 07:42:55;;;;;;;21.17;11.55;;;;;;;;;;5112960;28;20020;-37
2022/02/07 07:45:24;;;;;;;22.92;10.68;;;;;;;;;;5093098;28;20497;-36
2022/02/07 07:47:51;;;;;;;21.27;12.07;;;;;;;;;;5113741;28;20012;-37
2022/02/07 07:50:29;;;;;;;18.17;11.13;;;;;;;;;;5116017;28;20363;-36
2022/02/07 08:01:14;;;;;;;18.30;10.85;;;;;;;;;;5095631;28;20028;-37
2022/02/07 08:03:49;;;;;;;20.48;11.95;;;;;;;;;;5102461;28;20024;-36
2022/02/07 08:06:27;;;;;;;18.98;10.98;;;;;;;;;;5110301;28;20024;-39
2022/02/07 08:11:27;;;;;;;19.73;9.63;;;;;;;;;;5104039;28;20024;-38
2022/02/07 08:13:54;;;;;;;20.33;10.05;;;;;;;;;;5104638;28;20019;-42
2022/02/07 08:16:19;;;;;;;17.20;9.40;;;;;;;;;;5099973;28;20063;-38
2022/02/07 08:18:45;;;;;;;17.35;8.10;;;;;;;;;;5081163;28;20050;-36
2022/02/07 08:21:10;;;;;;;15.55;7.40;;;;;;;;;;5110272;28;20035;-36
2022/02/07 08:23:36;;;;;;;10.55;6.05;;;;;;;;;;5088370;28;20030;-35
2022/02/07 08:26:03;;;;;;;8.40;4.47;;;;;;;;;;5111557;28;20081;-38
2022/02/07 08:28:29;;;;;;;9.25;4.35;;;;;;;;;;5107153;28;20033;-37
2022/02/07 08:30:54;;;;;;;8.15;4.35;;;;;;;;;;5105612;28;20031;-36
2022/02/07 08:33:19;;;;;;;4.25;2.97;;;;;;;;;;5102806;28;20480;-40
2022/02/07 08:35:45;;;;;;;6.05;2.72;;;;;;;;;;5110649;28;20027;-36
2022/02/07 08:38:10;;;;;;;3.00;2.30;;;;;;;;;;5085432;28;20028;-39
2022/02/07 08:40:37;;;;;;;5.05;2.42;;;;;;;;;;5106719;28;20043;-37
2022/02/07 08:43:03;;;;;;;5.00;3.30;;;;;;;;;;5107653;28;20390;-37
2022/02/07 08:45:28;;;;;;;7.13;2.70;;;;;;;;;;5090512;28;20027;-36
2022/02/07 08:47:56;;;;;;;5.32;2.03;;;;;;;;;;5112016;28;20020;-36
2022/02/07 08:50:28;;;;;;;2.85;1.92;;;;;;;;;;5082033;28;20024;-37
2022/02/07 08:52:56;;;;;;;2.95;2.08;;;;;;;;;;5111850;28;20019;-36
2022/02/07 08:55:47;;;;;;;2.80;1.80;;;;;;;;;;5088862;28;20063;-35
2022/02/07 08:58:10;;;;;;;3.20;1.75;;;;;;;;;;5099284;28;20036;-36
2022/02/07 09:03:25;;;;;;;0.50;0.50;;;;;;;;;;5099828;28;20024;-35
2022/02/07 09:11:04;;;;;;;0.73;0.40;;;;;;;;;;5109753;28;20031;-37
2022/02/07 09:13:31;;;;;;;1.60;0.60;;;;;;;;;;5105585;27;20102;-38
2022/02/07 09:16:18;;;;;;;1.40;1.30;;;;;;;;;;5110932;28;20020;-35
2022/02/07 09:18:44;;;;;;;1.45;0.90;;;;;;;;;;5107150;28;20469;-36
2022/02/07 09:21:10;;;;;;;0.60;0.50;;;;;;;;;;5083955;28;20039;-35
2022/02/07 09:23:36;;;;;;;3.25;0.47;;;;;;;;;;5075824;28;20433;-35
2022/02/07 09:26:02;;;;;;;0.95;0.52;;;;;;;;;;5106398;28;20024;-35
2022/02/07 09:28:27;;;;;;;1.90;0.80;;;;;;;;;;5096052;28;20492;-36
2022/02/07 09:30:53;;;;;;;1.48;0.57;;;;;;;;;;5111567;28;20035;-36
2022/02/07 09:33:20;;;;;;;3.13;0.60;;;;;;;;;;5098205;28;20382;-35
2022/02/07 09:35:45;;;;;;;1.33;0.70;;;;;;;;;;5106906;28;20027;-35
2022/02/07 09:38:11;;;;;;;2.78;0.90;;;;;;;;;;5078161;28;20028;-37
2022/02/07 09:40:38;;;;;;;0.68;0.60;;;;;;;;;;5085723;28;20478;-39
2022/02/07 09:43:05;;;;;;;2.53;1.67;;;;;;;;;;5089635;28;20111;-35
2022/02/07 09:45:34;;;;;;;1.55;0.93;;;;;;;;;;5093330;28;20052;-35
2022/02/07 09:48:00;;;;;;;4.68;2.20;;;;;;;;;;5078784;28;20019;-43
2022/02/07 09:50:26;;;;;;;19.35;7.93;;;;;;;;;;5092116;28;20032;-36
2022/02/07 09:52:51;;;;;;;35.75;11.30;;;;;;;;;;5086011;28;20031;-35
2022/02/07 09:55:17;;;;;;;12.40;4.75;;;;;;;;;;5112863;28;20026;-35
2022/02/07 09:57:42;;;;;;;37.83;10.35;;;;;;;;;;5098826;28;20035;-36
2022/02/07 10:00:09;;;;;;;30.10;9.63;;;;;;;;;;5093042;28;20038;-35
2022/02/07 10:03:03;;;;;;;45.30;15.85;;;;;;;;;;5104884;28;20011;-35
2022/02/07 10:05:29;;;;;;;18.92;6.10;;;;;;;;;;5102322;28;20020;-35
2022/02/07 10:08:11;;;;;;;9.75;3.72;;;;;;;;;;5109932;28;20024;-35
2022/02/07 10:10:49;;;;;;;46.67;14.18;;;;;;;;;;5106083;28;20418;-35
2022/02/07 10:13:44;;;;;;;23.60;7.90;;;;;;;;;;5099642;28;20391;-39
2022/02/07 10:16:38;;;;;;;21.50;9.57;;;;;;;;;;5095867;28;20073;-37
2022/02/07 10:19:18;;;;;;;2.40;1.42;;;;;;;;;;5107228;28;20039;-35
2022/02/07 10:38:50;;;;;;;12.27;2.50;;;;;;;;;;5106605;28;20024;-36
2022/02/07 10:44:45;;;;;;;10.05;4.15;;;;;;;;;;5068547;28;20039;-36
2022/02/07 10:47:21;;;;;;;4.00;1.40;;;;;;;;;;5100432;28;20394;-35
2022/02/07 10:50:00;;;;;;;9.93;3.33;;;;;;;;;;5094596;28;20107;-35
2022/02/07 10:52:26;;;;;;;6.45;2.85;;;;;;;;;;5095154;28;20024;-35
2022/02/07 10:54:52;;;;;;;14.48;3.15;;;;;;;;;;5108282;28;20076;-35
2022/02/07 10:57:18;;;;;;;6.80;1.80;;;;;;;;;;5073788;28;20107;-35
2022/02/07 10:59:44;;;;;;;3.47;1.10;;;;;;;;;;5090128;28;20028;-37
2022/02/07 11:04:43;;;;;;;3.08;2.33;;;;;;;;;;5109403;28;20023;-35
2022/02/07 11:07:11;;;;;;;2.55;0.73;;;;;;;;;;5103101;28;20038;-35
2022/02/07 11:09:58;;;;;;;1.17;0.60;;;;;;;;;;5107648;28;20473;-36
2022/02/07 11:17:43;;;;;;;;;;;;;;;;;;5110814;28;20019;-44
2022/02/07 11:23:04;;;;;;;1.70;0.88;;;;;;;;;;5111395;28;20064;-35
2022/02/07 11:28:12;;;;;;;3.63;1.63;;;;;;;;;;5111630;28;20386;-41
2022/02/07 11:30:42;;;;;;;6.78;2.42;;;;;;;;;;5079185;28;20083;-36
2022/02/07 11:33:28;;;;;;;5.40;1.98;;;;;;;;;;5085880;28;20065;-36
2022/02/07 11:35:53;;;;;;;7.35;1.58;;;;;;;;;;5094000;28;20028;-36
2022/02/07 11:38:19;;;;;;;3.83;1.67;;;;;;;;;;5103777;28;20028;-34
2022/02/07 11:41:04;;;;;;;2.03;1.30;;;;;;;;;;5097273;28;20032;-35
2022/02/07 11:43:31;;;;;;;2.35;1.10;;;;;;;;;;5083986;28;20107;-36
2022/02/07 11:46:05;;;;;;;4.25;1.75;;;;;;;;;;5109911;28;20016;-36
2022/02/07 11:48:31;;;;;;;0.98;0.80;;;;;;;;;;5085277;28;20028;-40
2022/02/07 11:51:00;;;;;;;1.92;1.23;;;;;;;;;;5108357;28;20102;-43
2022/02/07 11:53:31;;;;;;;2.53;1.10;;;;;;;;;;5085553;28;20224;-35
2022/02/07 11:56:13;;;;;;;4.95;1.70;;;;;;;;;;5086458;28;20019;-36
2022/02/07 11:59:15;;;;;;;2.85;1.65;;;;;;;;;;5088934;28;20038;-35
2022/02/07 12:01:53;;;;;;;2.58;1.35;;;;;;;;;;5109523;28;20059;-35
2022/02/07 12:04:26;;;;;;;1.40;0.90;;;;;;;;;;5107677;28;20039;-35
2022/02/07 12:07:08;;;;;;;5.22;1.20;;;;;;;;;;5087142;28;20027;-35
2022/02/07 12:09:34;;;;;;;1.90;1.20;;;;;;;;;;5109873;28;20384;-36
2022/02/07 12:12:00;;;;;;;6.60;1.90;;;;;;;;;;5103782;28;20024;-34
2022/02/07 12:14:35;;;;;;;2.38;1.15;;;;;;;;;;5087522;28;20413;-35
2022/02/07 12:17:02;;;;;;;6.03;2.75;;;;;;;;;;5105553;28;20114;-37
2022/02/07 12:19:34;;;;;;;1.65;1.15;;;;;;;;;;5087060;28;20069;-35
2022/02/07 12:22:10;;;;;;;1.77;1.00;;;;;;;;;;5106477;28;20640;-35
2022/02/07 12:24:56;;;;;;;6.07;2.90;;;;;;;;;;5080841;28;20019;-35
2022/02/07 12:27:22;;;;;;;10.50;3.80;;;;;;;;;;5073220;28;20081;-35
2022/02/07 12:30:17;;;;;;;7.95;3.63;;;;;;;;;;5106177;28;20032;-36
2022/02/07 12:32:44;;;;;;;2.95;1.50;;;;;;;;;;5111723;28;20031;-39
2022/02/07 12:35:10;;;;;;;1.52;1.00;;;;;;;;;;5111599;27;20038;-35
2022/02/07 12:37:39;;;;;;;3.42;1.20;;;;;;;;;;5091377;28;20459;-35
2022/02/07 12:40:04;;;;;;;;;;;;;;;;;;5103465;28;20483;-35
2022/02/07 12:42:30;;;;;;;7.55;1.17;;;;;;;;;;5111010;28;19915;-39
2022/02/07 12:44:59;;;;;;;8.38;1.10;;;;;;;;;;5107029;28;20042;-38
2022/02/07 12:47:25;;;;;;;3.60;1.00;;;;;;;;;;5109888;27;20453;-35
2022/02/07 12:49:54;;;;;;;7.75;1.25;;;;;;;;;;5110577;28;20059;-35
2022/02/07 12:52:19;;;;;;;3.03;1.00;;;;;;;;;;5106455;28;20024;-34
2022/02/07 12:54:45;;;;;;;2.33;0.77;;;;;;;;;;5106201;28;20020;-35
2022/02/07 12:57:10;;;;;;;16.35;1.50;;;;;;;;;;5080989;28;20051;-35
2022/02/07 12:59:35;;;;;;;24.10;2.63;;;;;;;;;;5086356;28;20032;-35
2022/02/07 13:02:01;;;;;;;21.38;1.25;;;;;;;;;;5095549;28;20477;-34
2022/02/07 13:04:26;;;;;;;16.45;1.75;;;;;;;;;;5111398;28;20378;-35
2022/02/07 13:06:56;;;;;;;13.38;1.25;;;;;;;;;;5100411;28;20360;-34
2022/02/07 13:09:25;;;;;;;16.15;1.08;;;;;;;;;;5108158;28;20035;-38
2022/02/07 13:14:50;;;;;;;24.98;1.67;;;;;;;;;;5068486;28;20070;-35
2022/02/07 13:17:18;;;;;;;6.75;0.90;;;;;;;;;;5106764;28;20024;-41
2022/02/07 13:19:44;;;;;;;10.02;0.93;;;;;;;;;;5109652;28;20466;-35
2022/02/07 13:22:10;;;;;;;5.47;0.98;;;;;;;;;;5090335;28;20091;-34
2022/02/07 13:24:37;;;;;;;6.28;0.80;;;;;;;;;;5090716;28;20024;-35
2022/02/07 13:27:05;;;;;;;3.55;0.80;;;;;;;;;;5092868;28;20058;-35
2022/02/07 13:29:34;;;;;;;5.43;0.90;;;;;;;;;;5109958;28;20027;-34
2022/02/07 13:32:00;;;;;;;1.17;0.55;;;;;;;;;;5091764;28;20023;-34
2022/02/07 13:34:26;;;;;;;11.75;1.33;;;;;;;;;;5081809;28;20073;-35
2022/02/07 13:36:52;;;;;;;4.57;1.00;;;;;;;;;;5107883;28;20015;-35
2022/02/07 13:39:19;;;;;;;4.25;0.63;;;;;;;;;;5108485;28;20059;-35
2022/02/07 13:42:05;;;;;;;19.63;1.50;;;;;;;;;;5102468;27;20043;-37
2022/02/07 13:44:30;;;;;;;24.17;2.33;;;;;;;;;;5093082;28;20036;-35
2022/02/07 13:47:00;;;;;;;38.55;2.20;;;;;;;;;;5093600;28;20099;-34
2022/02/07 13:49:26;;;;;;;9.82;1.20;;;;;;;;;;5093597;28;20024;-34
2022/02/07 13:51:52;;;;;;;14.23;1.02;;;;;;;;;;5093777;28;20020;-35
2022/02/07 13:54:26;;;;;;;7.15;0.82;;;;;;;;;;5094250;28;20020;-35
2022/02/07 13:56:56;;;;;;;11.80;1.52;;;;;;;;;;5095403;28;20378;-35
2022/02/07 13:59:22;;;;;;;10.07;2.13;;;;;;;;;;5114216;28;20054;-35
2022/02/07 14:01:49;;;;;;;12.25;1.27;;;;;;;;;;5113927;28;20035;-34
2022/02/07 14:04:18;;;;;;;14.18;2.92;;;;;;;;;;5113770;28;20015;-34
2022/02/07 14:06:48;;;;;;;;;;;;;;;;;;5104994;28;20028;-35
2022/02/07 14:09:14;;;;;;;8.73;1.17;;;;;;;;;;5101946;28;19904;-34
2022/02/07 14:11:42;;;;;;;23.08;1.60;;;;;;;;;;5093454;28;20260;-35
2022/02/07 14:14:08;;;;;;;17.98;2.13;;;;;;;;;;5104619;28;20098;-34
2022/02/07 14:16:34;;;;;;;5.03;1.10;;;;;;;;;;5100822;28;20156;-38
2022/02/07 14:19:00;;;;;;;11.05;1.17;;;;;;;;;;5087156;28;20545;-37
2022/02/07 14:21:30;;;;;;;15.35;1.17;;;;;;;;;;5103835;28;20118;-34
2022/02/07 14:23:55;;;;;;;13.93;3.17;;;;;;;;;;5100195;28;20051;-35
2022/02/07 14:26:22;;;;;;;8.20;1.33;;;;;;;;;;5111685;28;20101;-35
2022/02/07 14:28:52;;;;;;;9.95;0.98;;;;;;;;;;5089096;28;20053;-35
2022/02/07 14:31:17;;;;;;;;;;;;;;;;;;5087587;28;20031;-35
2022/02/07 14:33:42;;;;;;;41.30;2.20;;;;;;;;;;5099797;28;19912;-34
2022/02/07 14:36:08;;;;;;;29.85;2.17;;;;;;;;;;5080783;28;20287;-37
2022/02/07 14:38:34;;;;;;;20.02;1.75;;;;;;;;;;5108200;28;20043;-34
2022/02/07 14:40:59;;;;;;;25.15;2.42;;;;;;;;;;5105867;28;20489;-36
2022/02/07 14:43:31;;;;;;;25.80;2.33;;;;;;;;;;5100126;28;20060;-34
2022/02/07 14:46:22;;;;;;;7.80;1.20;;;;;;;;;;5083979;28;20042;-36
2022/02/07 14:48:45;;;;;;;3.80;1.15;;;;;;;;;;5111165;28;20111;-35
2022/02/07 14:51:10;;;;;;;4.88;1.40;;;;;;;;;;5107450;28;20102;-38
2022/02/07 14:53:37;;;;;;;10.90;1.38;;;;;;;;;;5111939;28;20094;-35
2022/02/07 14:56:03;;;;;;;1.73;1.00;;;;;;;;;;5104718;28;20035;-35
2022/02/07 14:58:28;;;;;;;2.97;0.82;;;;;;;;;;5104528;28;20019;-35
2022/02/07 15:00:54;;;;;;;4.45;1.55;;;;;;;;;;5109175;28;20027;-35
2022/02/07 15:03:20;;;;;;;5.18;2.10;;;;;;;;;;5088021;28;20032;-34
2022/02/07 15:05:47;;;;;;;2.33;1.13;;;;;;;;;;5093041;28;20057;-36
2022/02/07 15:08:12;;;;;;;3.85;1.17;;;;;;;;;;5104740;28;20016;-35
2022/02/07 15:10:38;;;;;;;7.35;1.02;;;;;;;;;;5086777;28;20119;-34
2022/02/07 15:13:04;;;;;;;10.25;1.30;;;;;;;;;;5088002;28;20027;-38
2022/02/07 15:15:29;;;;;;;22.60;2.53;;;;;;;;;;5097565;28;20425;-35
2022/02/07 15:17:57;;;;;;;32.00;2.88;;;;;;;;;;5104690;28;20015;-36
2022/02/07 15:20:22;;;;;;;22.45;3.38;;;;;;;;;;5094252;28;20119;-35
2022/02/07 15:22:49;;;;;;;20.95;2.05;;;;;;;;;;5103579;28;20106;-35
2022/02/07 15:25:20;;;;;;;11.43;1.73;;;;;;;;;;5103617;28;20482;-41
2022/02/07 15:27:46;;;;;;;3.80;1.00;;;;;;;;;;5103338;28;20016;-35
2022/02/07 15:31:04;;;;;;;11.27;1.20;;;;;;;;;;5082424;27;20398;-36
2022/02/07 15:33:37;;;;;;;8.55;1.00;;;;;;;;;;5083011;28;20029;-35
2022/02/07 15:36:02;;;;;;;4.20;1.17;;;;;;;;;;5067227;28;20013;-36
2022/02/07 15:38:28;;;;;;;28.33;3.17;;;;;;;;;;5068510;28;20027;-34
2022/02/07 15:40:53;;;;;;;10.15;1.40;;;;;;;;;;5070292;28;20100;-34
2022/02/07 15:43:19;;;;;;;8.98;1.33;;;;;;;;;;5068468;28;20009;-34
2022/02/07 15:45:45;;;;;;;12.85;1.35;;;;;;;;;;5069728;28;20452;-35
2022/02/07 15:48:10;;;;;;;8.25;1.70;;;;;;;;;;5069832;28;20013;-34
2022/02/07 15:50:37;;;;;;;9.32;1.30;;;;;;;;;;5069768;28;20032;-34
2022/02/07 15:53:04;;;;;;;11.50;1.65;;;;;;;;;;5069447;28;20028;-34
2022/02/07 15:55:30;;;;;;;2.45;0.88;;;;;;;;;;5069625;28;20025;-34
2022/02/07 16:00:16;;;;;;;9.25;1.23;;;;;;;;;;5090281;28;20359;-35
2022/02/07 16:02:49;;;;;;;2.38;1.05;;;;;;;;;;5090456;28;20439;-34
2022/02/07 16:05:18;;;;;;;4.88;1.15;;;;;;;;;;5089073;28;20020;-34
2022/02/07 16:07:43;;;;;;;7.18;1.38;;;;;;;;;;5089845;28;20016;-34
2022/02/07 16:10:09;;;;;;;6.53;1.40;;;;;;;;;;5088933;28;20012;-34
2022/02/07 16:12:35;;;;;;;5.28;1.30;;;;;;;;;;5090342;28;20024;-34
2022/02/07 16:15:00;;;;;;;4.50;1.20;;;;;;;;;;5100711;28;20016;-34
